createdAt,value
2018-09-19T00:01:49.105Z,13.40
2018-09-19T00:04:16.704Z,13.03
2018-09-19T00:06:44.258Z,13.90
2018-09-19T00:09:11.817Z,11.60
2018-09-19T00:11:39.409Z,11.63
2018-09-19T00:14:06.965Z,14.03
2018-09-19T00:16:34.523Z,15.47
2018-09-19T00:19:02.118Z,16.63
2018-09-19T00:21:29.680Z,11.83
2018-09-19T00:23:57.236Z,13.30
2018-09-19T00:26:24.815Z,12.37
2018-09-19T00:28:52.369Z,11.13
2018-09-19T00:31:19.971Z,11.63
2018-09-19T00:33:47.535Z,19.77
2018-09-19T00:36:15.089Z,15.47
2018-09-19T00:38:42.669Z,10.20
2018-09-19T00:41:10.221Z,11.10
2018-09-19T00:43:37.819Z,10.53
2018-09-19T00:46:05.376Z,11.30
2018-09-19T00:48:32.928Z,11.05
2018-09-19T00:51:00.515Z,12.07
2018-09-19T00:53:28.071Z,11.03
2018-09-19T00:55:55.668Z,13.55
2018-09-19T00:58:23.224Z,12.43
2018-09-19T01:00:51.562Z,12.77
2018-09-19T01:03:19.163Z,11.50
2018-09-19T01:05:47.480Z,13.03
2018-09-19T01:08:15.051Z,14.37
2018-09-19T01:10:43.020Z,14.80
2018-09-19T01:13:10.585Z,19.27
2018-09-19T01:15:38.525Z,11.70
2018-09-19T01:18:06.082Z,11.07
2018-09-19T01:20:33.642Z,11.03
2018-09-19T01:23:01.238Z,12.37
2018-09-19T01:25:28.796Z,13.53
2018-09-19T01:27:56.399Z,11.60
2018-09-19T01:30:23.948Z,10.50
2018-09-19T01:32:51.509Z,10.70
2018-09-19T01:35:19.097Z,13.50
2018-09-19T01:37:47.509Z,14.68
2018-09-19T01:40:15.125Z,15.67
2018-09-19T01:42:42.679Z,14.43
2018-09-19T01:45:10.234Z,12.63
2018-09-19T01:47:37.816Z,12.07
2018-09-19T01:50:06.139Z,14.83
2018-09-19T01:52:33.733Z,13.93
2018-09-19T01:55:01.292Z,11.63
2018-09-19T01:57:28.849Z,11.20
2018-09-19T01:59:56.451Z,14.50
2018-09-19T02:02:24.366Z,10.60
2018-09-19T02:04:51.928Z,15.27
2018-09-19T02:07:19.508Z,12.37
2018-09-19T02:09:47.068Z,10.50
2018-09-19T02:12:14.685Z,13.03
2018-09-19T02:14:42.239Z,14.80
2018-09-19T02:17:09.844Z,13.90
2018-09-19T02:19:37.382Z,15.47
2018-09-19T02:22:04.936Z,13.37
2018-09-19T02:24:32.554Z,12.73
2018-09-19T02:27:00.889Z,14.30
2018-09-19T02:29:28.449Z,11.43
2018-09-19T02:31:56.045Z,12.80
2018-09-19T02:34:23.996Z,11.53
2018-09-19T02:36:51.550Z,13.20
2018-09-19T02:39:19.332Z,12.33
2018-09-19T02:41:46.884Z,11.90
2018-09-19T02:44:14.450Z,15.00
2018-09-19T02:46:42.033Z,10.67
2018-09-19T02:49:09.870Z,11.00
2018-09-19T02:51:37.474Z,18.50
2018-09-19T02:54:05.791Z,12.57
2018-09-19T02:56:33.354Z,12.50
2018-09-19T02:59:00.937Z,12.00
2018-09-19T03:01:28.494Z,15.23
2018-09-19T03:03:56.568Z,15.17
2018-09-19T03:06:24.125Z,12.50
2018-09-19T03:08:51.696Z,17.07
2018-09-19T03:11:19.294Z,12.23
2018-09-19T03:13:47.615Z,12.93
2018-09-19T03:16:15.180Z,13.10
2018-09-19T03:18:42.779Z,13.47
2018-09-19T03:21:10.330Z,12.37
2018-09-19T03:23:37.888Z,10.97
2018-09-19T03:26:06.048Z,12.70
2018-09-19T03:28:33.605Z,12.70
2018-09-19T03:31:01.163Z,14.13
2018-09-19T03:33:28.754Z,14.27
2018-09-19T03:35:56.311Z,14.90
2018-09-19T03:38:23.872Z,12.10
2018-09-19T03:40:51.464Z,14.57
2018-09-19T03:43:19.023Z,13.87
2018-09-19T03:45:47.348Z,15.17
2018-09-19T03:48:14.924Z,11.63
2018-09-19T03:50:42.485Z,13.97
2018-09-19T03:53:10.116Z,12.73
2018-09-19T03:55:37.669Z,12.93
2018-09-19T03:58:05.275Z,13.20
2018-09-19T04:00:33.588Z,14.00
2018-09-19T04:03:01.406Z,10.17
2018-09-19T04:05:28.961Z,15.20
2018-09-19T04:07:56.792Z,13.23
2018-09-19T04:10:25.113Z,11.77
2018-09-19T04:12:52.670Z,11.00
2018-09-19T04:15:20.249Z,11.50
2018-09-19T04:17:47.865Z,9.83
2018-09-19T04:20:15.428Z,12.93
2018-09-19T04:22:43.759Z,14.02
2018-09-19T04:25:11.319Z,12.30
2018-09-19T04:27:38.907Z,15.60
2018-09-19T04:30:07.232Z,15.27
2018-09-19T04:32:34.874Z,13.03
2018-09-19T04:35:02.435Z,17.17
2018-09-19T04:37:29.987Z,17.07
2018-09-19T04:39:57.590Z,12.60
2018-09-19T04:42:25.155Z,13.13
2018-09-19T04:44:52.709Z,13.03
2018-09-19T04:47:20.305Z,14.93
2018-09-19T04:49:47.863Z,17.37
2018-09-19T04:52:15.420Z,14.00
2018-09-19T04:54:43.569Z,17.53
2018-09-19T04:57:11.125Z,15.32
2018-09-19T04:59:38.690Z,14.13
2018-09-19T05:02:06.268Z,17.87
2018-09-19T05:04:33.864Z,13.63
2018-09-19T05:07:02.357Z,17.90
2018-09-19T05:09:29.916Z,16.30
2018-09-19T05:11:57.473Z,14.63
2018-09-19T05:14:25.820Z,18.63
2018-09-19T05:16:53.380Z,15.50
2018-09-19T05:19:21.017Z,13.17
2018-09-19T05:21:48.559Z,10.57
2018-09-19T05:24:16.106Z,13.40
2018-09-19T05:26:43.695Z,14.20
2018-09-19T05:29:11.246Z,15.67
2018-09-19T05:31:38.913Z,12.00
2018-09-19T05:34:06.415Z,14.43
2018-09-19T05:36:33.978Z,11.83
2018-09-19T05:39:01.567Z,16.43
2018-09-19T05:41:29.892Z,16.03
2018-09-19T05:43:57.965Z,16.33
2018-09-19T05:46:25.572Z,15.57
2018-09-19T05:48:53.097Z,15.33
2018-09-19T05:51:20.690Z,18.30
2018-09-19T05:53:49.010Z,13.53
2018-09-19T05:56:17.511Z,17.47
2018-09-19T05:58:45.071Z,16.87
2018-09-19T06:01:12.628Z,16.87
2018-09-19T06:03:40.261Z,16.00
2018-09-19T06:06:07.817Z,13.50
2018-09-19T06:08:35.373Z,11.60
2018-09-19T06:11:03.481Z,16.83
2018-09-19T06:13:31.037Z,18.50
2018-09-19T06:15:58.602Z,17.17
2018-09-19T06:18:26.600Z,18.77
2018-09-19T06:20:54.123Z,16.17
2018-09-19T06:23:21.679Z,13.73
2018-09-19T06:25:49.321Z,17.97
2018-09-19T06:28:16.884Z,18.43
2018-09-19T06:30:44.443Z,17.07
2018-09-19T06:33:12.975Z,17.23
2018-09-19T06:35:40.401Z,22.83
2018-09-19T06:38:07.959Z,19.73
2018-09-19T06:40:36.379Z,19.20
2018-09-19T06:43:03.831Z,21.93
2018-09-19T06:45:31.423Z,21.83
2018-09-19T06:47:59.579Z,21.00
2018-09-19T06:50:27.140Z,18.27
2018-09-19T06:52:54.705Z,22.53
2018-09-19T06:55:22.664Z,17.07
2018-09-19T06:57:50.227Z,16.77
2018-09-19T07:00:17.787Z,20.73
2018-09-19T07:02:46.306Z,19.00
2018-09-19T07:05:14.637Z,18.00
2018-09-19T07:07:42.196Z,16.00
2018-09-19T07:10:09.782Z,13.90
2018-09-19T07:12:37.343Z,13.20
2018-09-19T07:15:04.989Z,16.90
2018-09-19T07:17:32.543Z,15.43
2018-09-19T07:20:00.103Z,14.00
2018-09-19T07:22:28.182Z,14.87
2018-09-19T07:24:55.742Z,15.27
2018-09-19T07:27:23.298Z,13.50
2018-09-19T07:29:51.337Z,17.57
2018-09-19T07:32:18.883Z,15.50
2018-09-19T07:34:46.444Z,15.57
2018-09-19T07:37:15.259Z,16.23
2018-09-19T07:39:42.821Z,12.93
2018-09-19T07:42:10.370Z,11.57
2018-09-19T07:44:38.013Z,18.80
2018-09-19T07:47:05.558Z,15.93
2018-09-19T07:49:33.116Z,15.57
2018-09-19T07:52:00.935Z,19.30
2018-09-19T07:54:28.517Z,12.47
2018-09-19T07:56:56.529Z,14.67
2018-09-19T07:59:24.104Z,15.33
2018-09-19T08:01:52.432Z,12.77
2018-09-19T08:04:20.712Z,15.07
2018-09-19T08:06:48.265Z,18.07
2018-09-19T08:09:15.865Z,14.47
2018-09-19T08:11:43.915Z,15.27
2018-09-19T08:14:11.475Z,14.20
2018-09-19T08:16:39.075Z,16.43
2018-09-19T08:19:06.639Z,15.43
2018-09-19T08:21:34.964Z,17.27
2018-09-19T08:24:02.538Z,13.53
2018-09-19T08:26:30.181Z,15.30
2018-09-19T08:28:58.483Z,12.00
2018-09-19T08:31:26.049Z,13.40
2018-09-19T08:33:53.695Z,10.82
2018-09-19T08:36:21.274Z,13.40
2018-09-19T08:38:48.834Z,10.93
2018-09-19T08:41:16.432Z,15.93
2018-09-19T08:43:43.998Z,12.63
2018-09-19T08:46:12.379Z,17.93
2018-09-19T08:48:40.703Z,10.07
2018-09-19T08:51:08.268Z,8.03
2018-09-19T08:53:36.754Z,13.63
2018-09-19T08:56:04.326Z,10.20
2018-09-19T08:58:32.022Z,9.65
2018-09-19T09:00:59.611Z,9.13
2018-09-19T09:03:27.164Z,11.43
2018-09-19T09:05:55.592Z,12.60
2018-09-19T09:08:23.156Z,11.10
2018-09-19T09:10:51.105Z,7.97
2018-09-19T09:13:19.087Z,8.83
2018-09-19T09:15:46.648Z,13.53
2018-09-19T09:18:14.220Z,7.13
2018-09-19T09:20:41.820Z,7.40
2018-09-19T09:23:09.378Z,10.47
2018-09-19T09:25:37.723Z,8.63
2018-09-19T09:28:06.114Z,12.53
2018-09-19T09:30:33.678Z,8.30
2018-09-19T09:33:01.251Z,9.33
2018-09-19T09:35:28.874Z,10.40
2018-09-19T09:37:56.436Z,6.23
2018-09-19T09:40:24.088Z,10.60
2018-09-19T09:42:51.636Z,11.10
2018-09-19T09:45:19.200Z,7.23
2018-09-19T09:47:46.770Z,10.50
2018-09-19T09:50:15.690Z,9.17
2018-09-19T09:52:43.236Z,8.57
2018-09-19T09:55:10.857Z,10.43
2018-09-19T09:57:38.882Z,11.63
2018-09-19T10:00:06.451Z,8.93
2018-09-19T10:02:34.013Z,7.72
2018-09-19T10:05:01.615Z,11.47
2018-09-19T10:07:29.178Z,8.90
2018-09-19T10:09:56.796Z,7.40
2018-09-19T10:12:24.366Z,7.47
2018-09-19T10:14:51.980Z,9.83
2018-09-19T10:17:19.554Z,7.93
2018-09-19T10:19:47.128Z,6.67
2018-09-19T10:22:14.705Z,7.07
2018-09-19T10:24:42.757Z,8.07
2018-09-19T10:27:10.316Z,6.43
2018-09-19T10:29:38.005Z,6.00
2018-09-19T10:32:05.963Z,10.57
2018-09-19T10:34:33.530Z,6.83
2018-09-19T10:37:01.097Z,7.68
2018-09-19T10:39:28.714Z,9.93
2018-09-19T10:41:56.268Z,9.43
2018-09-19T10:44:23.837Z,9.00
2018-09-19T10:46:51.456Z,8.00
2018-09-19T10:49:19.825Z,7.03
2018-09-19T10:51:47.353Z,5.53
2018-09-19T10:54:14.945Z,4.37
2018-09-19T10:56:42.518Z,6.57
2018-09-19T10:59:10.902Z,10.07
2018-09-19T11:01:39.233Z,6.70
2018-09-19T11:04:06.804Z,12.13
2018-09-19T11:06:35.392Z,6.67
2018-09-19T11:09:02.961Z,7.43
2018-09-19T11:11:30.517Z,5.77
2018-09-19T11:13:58.904Z,8.20
2018-09-19T11:16:26.469Z,6.78
2018-09-19T11:18:54.037Z,7.80
2018-09-19T11:21:21.667Z,6.83
2018-09-19T11:23:49.234Z,5.63
2018-09-19T11:26:16.811Z,8.77
2018-09-19T11:28:44.971Z,4.93
2018-09-19T11:31:12.538Z,4.37
2018-09-19T11:33:40.132Z,10.20
2018-09-19T11:36:08.074Z,6.33
2018-09-19T11:38:35.635Z,10.73
2018-09-19T11:41:03.204Z,9.93
2018-09-19T11:43:30.798Z,6.13
2018-09-19T11:45:58.359Z,4.83
2018-09-19T11:48:25.999Z,6.40
2018-09-19T11:50:53.565Z,4.70
2018-09-19T11:53:21.166Z,6.63
2018-09-19T11:55:48.797Z,4.20
2018-09-19T11:58:17.127Z,5.43
2018-09-19T12:00:44.692Z,8.40
2018-09-19T12:03:12.299Z,5.27
2018-09-19T12:05:40.634Z,5.43
2018-09-19T12:08:08.205Z,9.10
2018-09-19T12:10:35.836Z,5.93
2018-09-19T12:13:03.408Z,7.03
2018-09-19T12:15:30.973Z,6.97
2018-09-19T12:17:58.603Z,7.10
2018-09-19T12:20:26.166Z,7.20
2018-09-19T12:22:53.725Z,4.70
2018-09-19T12:25:21.745Z,6.50
2018-09-19T12:27:49.307Z,6.30
2018-09-19T12:30:17.267Z,8.10
2018-09-19T12:32:44.888Z,5.97
2018-09-19T12:35:12.452Z,7.80
2018-09-19T12:37:40.017Z,7.80
2018-09-19T12:40:08.319Z,7.17
2018-09-19T12:42:35.884Z,5.03
2018-09-19T12:45:03.457Z,6.50
2018-09-19T12:47:31.070Z,7.30
2018-09-19T12:49:59.415Z,6.53
2018-09-19T12:52:26.983Z,10.37
2018-09-19T12:54:54.598Z,6.80
2018-09-19T12:57:22.162Z,5.43
2018-09-19T12:59:49.728Z,12.23
2018-09-19T13:02:17.380Z,6.70
2018-09-19T13:04:44.958Z,8.52
2018-09-19T13:07:12.514Z,6.93
2018-09-19T13:09:40.611Z,5.20
2018-09-19T13:12:08.188Z,7.00
2018-09-19T13:14:35.754Z,5.87
2018-09-19T13:17:03.880Z,8.33
2018-09-19T13:19:31.449Z,8.90
2018-09-19T13:21:59.020Z,8.63
2018-09-19T13:24:26.636Z,8.03
2018-09-19T13:26:54.212Z,7.13
2018-09-19T13:29:21.778Z,9.80
2018-09-19T13:31:49.999Z,9.77
2018-09-19T13:34:17.568Z,6.80
2018-09-19T13:36:45.169Z,9.52
2018-09-19T13:39:12.768Z,5.83
2018-09-19T13:41:40.333Z,6.12
2018-09-19T13:44:07.899Z,7.40
2018-09-19T13:46:36.757Z,5.60
2018-09-19T13:49:04.321Z,6.77
2018-09-19T13:51:31.878Z,7.83
2018-09-19T13:53:59.533Z,9.77
2018-09-19T13:56:27.104Z,8.27
2018-09-19T13:58:54.720Z,7.10
2018-09-19T14:01:22.877Z,8.27
2018-09-19T14:03:50.438Z,12.07
2018-09-19T14:06:18.005Z,7.03
2018-09-19T14:08:46.167Z,6.17
2018-09-19T14:11:13.732Z,5.80
2018-09-19T14:13:41.290Z,6.30
2018-09-19T14:16:08.911Z,8.57
2018-09-19T14:18:36.476Z,7.57
2018-09-19T14:21:04.096Z,13.83
2018-09-19T14:23:32.038Z,10.77
2018-09-19T14:25:59.601Z,8.83
2018-09-19T14:28:27.195Z,6.20
2018-09-19T14:30:54.786Z,8.33
2018-09-19T14:33:22.353Z,8.27
2018-09-19T14:35:50.099Z,5.73
2018-09-19T14:38:17.588Z,7.60
2018-09-19T14:40:45.181Z,9.80
2018-09-19T14:43:13.036Z,8.90
2018-09-19T14:45:40.651Z,9.20
2018-09-19T14:48:08.221Z,6.13
2018-09-19T14:50:36.551Z,5.87
2018-09-19T14:53:05.133Z,7.40
2018-09-19T14:55:32.699Z,6.97
2018-09-19T14:58:00.263Z,8.52
2018-09-19T15:00:27.939Z,9.10
2018-09-19T15:02:55.448Z,8.30
2018-09-19T15:05:23.013Z,6.60
2018-09-19T15:07:52.246Z,7.57
2018-09-19T15:10:19.785Z,9.13
2018-09-19T15:12:47.354Z,9.47
2018-09-19T15:15:14.947Z,6.70
2018-09-19T15:17:42.512Z,8.27
2018-09-19T15:20:10.610Z,8.27
2018-09-19T15:22:38.174Z,4.60
2018-09-19T15:25:05.759Z,8.60
2018-09-19T15:27:33.397Z,5.40
2018-09-19T15:30:01.734Z,6.33
2018-09-19T15:32:29.297Z,7.13
2018-09-19T15:34:56.922Z,10.63
2018-09-19T15:37:24.475Z,7.00
2018-09-19T15:39:52.043Z,6.40
2018-09-19T15:42:19.659Z,9.03
2018-09-19T15:44:47.222Z,6.33
2018-09-19T15:47:14.789Z,5.40
2018-09-19T15:49:42.715Z,6.80
2018-09-19T15:52:10.372Z,6.17
2018-09-19T15:54:37.909Z,9.10
2018-09-19T15:57:05.536Z,7.13
2018-09-19T15:59:33.081Z,8.93
2018-09-19T16:02:00.644Z,8.13
2018-09-19T16:04:28.259Z,3.93
2018-09-19T16:06:55.824Z,5.37
2018-09-19T16:09:23.453Z,8.47
2018-09-19T16:11:50.977Z,5.57
2018-09-19T16:14:18.544Z,7.43
2018-09-19T16:16:46.722Z,6.27
2018-09-19T16:19:14.284Z,8.10
2018-09-19T16:21:41.851Z,4.13
2018-09-19T16:24:10.428Z,4.93
2018-09-19T16:26:38.012Z,7.13
2018-09-19T16:29:05.840Z,6.37
2018-09-19T16:31:33.927Z,9.67
2018-09-19T16:34:01.489Z,9.33
2018-09-19T16:36:29.056Z,6.27
2018-09-19T16:38:56.675Z,5.97
2018-09-19T16:41:24.238Z,8.10
2018-09-19T16:43:51.804Z,6.83
2018-09-19T16:46:19.876Z,9.77
2018-09-19T16:48:47.441Z,13.97
2018-09-19T16:51:15.023Z,6.93
2018-09-19T16:53:43.120Z,5.03
2018-09-19T16:56:10.687Z,6.43
2018-09-19T16:58:38.290Z,7.53
2018-09-19T17:01:05.846Z,8.57
2018-09-19T17:03:33.415Z,9.33
2018-09-19T17:06:01.625Z,6.97
2018-09-19T17:08:29.190Z,11.67
2018-09-19T17:10:56.790Z,8.67
2018-09-19T17:13:24.410Z,7.50
2018-09-19T17:15:51.975Z,4.80
2018-09-19T17:18:19.540Z,15.07
2018-09-19T17:20:47.191Z,11.20
2018-09-19T17:23:14.762Z,8.27
2018-09-19T17:25:42.332Z,8.17
2018-09-19T17:28:09.940Z,5.77
2018-09-19T17:30:37.726Z,9.60
2018-09-19T17:33:05.293Z,5.80
2018-09-19T17:35:32.907Z,6.47
2018-09-19T17:38:01.241Z,8.77
2018-09-19T17:40:29.045Z,6.23
2018-09-19T17:42:57.700Z,9.17
2018-09-19T17:45:25.268Z,8.47
2018-09-19T17:47:52.834Z,10.83
2018-09-19T17:50:20.425Z,8.45
2018-09-19T17:52:48.757Z,8.87
2018-09-19T17:55:16.409Z,8.30
2018-09-19T17:57:44.388Z,10.00
2018-09-19T18:00:11.961Z,11.50
2018-09-19T18:02:40.440Z,9.53
2018-09-19T18:05:08.009Z,9.13
2018-09-19T18:07:35.574Z,9.90
2018-09-19T18:10:03.663Z,5.50
2018-09-19T18:12:31.246Z,15.33
2018-09-19T18:14:58.824Z,5.93
2018-09-19T18:17:26.459Z,6.07
2018-09-19T18:19:54.019Z,6.47
2018-09-19T18:22:22.349Z,7.40
2018-09-19T18:24:49.942Z,7.80
2018-09-19T18:27:17.571Z,7.87
2018-09-19T18:29:45.557Z,8.00
2018-09-19T18:32:13.120Z,7.90
2018-09-19T18:34:40.689Z,13.07
2018-09-19T18:37:08.302Z,13.60
2018-09-19T18:39:35.869Z,7.00
2018-09-19T18:42:03.429Z,7.93
2018-09-19T18:44:31.027Z,10.13
2018-09-19T18:46:58.616Z,9.50
2018-09-19T18:49:26.996Z,8.50
2018-09-19T18:51:54.577Z,14.23
2018-09-19T18:54:22.140Z,10.07
2018-09-19T18:56:49.762Z,13.20
2018-09-19T18:59:17.321Z,8.60
2018-09-19T19:01:44.916Z,8.97
2018-09-19T19:04:12.510Z,9.77
2018-09-19T19:06:40.083Z,9.00
2018-09-19T19:09:07.650Z,11.43
2018-09-19T19:11:36.086Z,9.40
2018-09-19T19:14:03.647Z,8.77
2018-09-19T19:16:31.218Z,8.43
2018-09-19T19:18:59.848Z,14.77
2018-09-19T19:21:27.448Z,8.90
2018-09-19T19:23:54.982Z,8.03
2018-09-19T19:26:22.605Z,10.40
2018-09-19T19:28:50.176Z,10.67
2018-09-19T19:31:17.742Z,7.13
2018-09-19T19:33:45.362Z,12.47
2018-09-19T19:36:12.939Z,11.27
2018-09-19T19:38:40.508Z,11.87
2018-09-19T19:41:08.100Z,9.03
2018-09-19T19:43:35.680Z,9.90
2018-09-19T19:46:03.843Z,12.93
2018-09-19T19:48:31.418Z,11.20
2018-09-19T19:50:59.000Z,11.90
2018-09-19T19:53:26.647Z,9.03
2018-09-19T19:55:54.222Z,13.07
2018-09-19T19:58:21.785Z,7.40
2018-09-19T20:00:50.526Z,8.83
2018-09-19T20:03:18.102Z,10.70
2018-09-19T20:05:45.685Z,8.33
2018-09-19T20:08:14.025Z,15.07
2018-09-19T20:10:41.897Z,9.30
2018-09-19T20:13:09.408Z,7.50
2018-09-19T20:15:37.819Z,10.83
2018-09-19T20:18:05.392Z,8.17
2018-09-19T20:20:32.976Z,11.40
2018-09-19T20:23:01.046Z,6.47
2018-09-19T20:25:28.624Z,11.13
2018-09-19T20:27:56.191Z,10.97
2018-09-19T20:30:23.810Z,8.10
2018-09-19T20:32:51.378Z,8.93
2018-09-19T20:35:18.941Z,8.47
2018-09-19T20:37:47.228Z,13.53
2018-09-19T20:40:14.801Z,10.27
2018-09-19T20:42:42.373Z,9.23
2018-09-19T20:45:09.993Z,13.93
2018-09-19T20:47:37.562Z,10.87
2018-09-19T20:50:05.137Z,10.50
2018-09-19T20:52:32.740Z,11.43
2018-09-19T20:55:01.069Z,7.90
2018-09-19T20:57:28.914Z,10.20
2018-09-19T20:59:56.483Z,9.53
2018-09-19T21:02:24.077Z,9.30
2018-09-19T21:04:51.812Z,7.90
2018-09-19T21:07:19.260Z,12.43
2018-09-19T21:09:46.837Z,15.97
2018-09-19T21:12:14.459Z,8.20
2018-09-19T21:14:42.795Z,11.97
2018-09-19T21:17:10.359Z,11.73
2018-09-19T21:19:37.955Z,7.47
2018-09-19T21:22:06.372Z,12.15
2018-09-19T21:24:34.776Z,7.03
2018-09-19T21:27:02.481Z,11.10
2018-09-19T21:29:30.813Z,9.03
2018-09-19T21:31:58.816Z,11.87
2018-09-19T21:34:26.448Z,11.37
2018-09-19T21:36:53.978Z,13.45
2018-09-19T21:39:21.610Z,8.33
2018-09-19T21:41:49.948Z,12.90
2018-09-19T21:44:17.524Z,11.57
2018-09-19T21:46:45.124Z,10.63
2018-09-19T21:49:12.700Z,12.82
2018-09-19T21:51:40.349Z,15.67
2018-09-19T21:54:07.916Z,9.80
2018-09-19T21:56:35.485Z,9.37
2018-09-19T21:59:03.092Z,12.55
2018-09-19T22:01:30.658Z,13.27
2018-09-19T22:03:58.223Z,11.87
2018-09-19T22:06:25.826Z,10.60
2018-09-19T22:08:53.399Z,12.40
2018-09-19T22:11:21.608Z,8.17
2018-09-19T22:13:49.167Z,8.13
2018-09-19T22:16:16.734Z,7.53
2018-09-19T22:18:44.585Z,13.33
2018-09-19T22:21:12.158Z,11.30
2018-09-19T22:23:39.724Z,11.98
2018-09-19T22:26:07.320Z,14.23
2018-09-19T22:28:35.657Z,11.60
2018-09-19T22:31:03.642Z,9.60
2018-09-19T22:33:31.224Z,9.83
2018-09-19T22:35:58.792Z,9.35
2018-09-19T22:38:27.173Z,13.63
2018-09-19T22:40:55.812Z,9.63
2018-09-19T22:43:23.429Z,9.87
2018-09-19T22:45:50.994Z,8.40
2018-09-19T22:48:19.325Z,11.90
2018-09-19T22:50:46.924Z,9.03
2018-09-19T22:53:15.255Z,9.80
2018-09-19T22:55:42.827Z,12.37
2018-09-19T22:58:10.426Z,8.50
2018-09-19T23:00:38.763Z,9.30
2018-09-19T23:03:06.374Z,8.90
2018-09-19T23:05:34.713Z,11.23
2018-09-19T23:08:02.286Z,10.50
2018-09-19T23:10:29.889Z,12.87
2018-09-19T23:12:57.457Z,12.57
2018-09-19T23:15:25.031Z,12.03
2018-09-19T23:17:52.630Z,11.80
2018-09-19T23:20:20.201Z,13.47
2018-09-19T23:22:47.770Z,11.37
2018-09-19T23:25:15.392Z,11.63
2018-09-19T23:27:42.974Z,11.80
2018-09-19T23:30:10.537Z,8.80
2018-09-19T23:32:38.129Z,10.90
2018-09-19T23:35:06.461Z,10.80
2018-09-19T23:37:34.062Z,6.23
2018-09-19T23:40:02.392Z,8.93
2018-09-19T23:42:29.963Z,11.33
2018-09-19T23:44:57.589Z,9.63
2018-09-19T23:47:25.143Z,10.20
2018-09-19T23:49:52.768Z,12.53
2018-09-19T23:52:20.350Z,10.23
2018-09-19T23:54:47.916Z,13.18
2018-09-19T23:57:16.554Z,11.57
2018-09-19T23:59:44.124Z,12.23
